Time;durP1;ratioP1;P1;durP2;ratioP2;P2;SDS_P1;SDS_P2;PMS_P1;PMS_P2;Temp;Humidity;BMP_temperature;BMP_pressure;BME280_temperature;BME280_humidity;BME280_pressure;Samples;Min_cycle;Max_cycle;Signal;HPM_P1;HPM_P2
2023/04/01 00:01:58;;;;;;;2.17;0.90;;;10.50;99.90;;;9.12;85.55;98692.59;10526560;27;96708;-84
2023/04/01 00:07:01;;;;;;;1.40;0.90;;;10.60;99.90;;;9.19;84.77;98697.94;10507038;27;96691;-83
2023/04/01 00:12:05;;;;;;;3.70;1.00;;;10.60;99.90;;;9.21;84.74;98688.75;10509135;27;96758;-83
2023/04/01 00:17:08;;;;;;;2.37;1.00;;;10.70;99.90;;;9.19;84.45;98696.09;10485235;27;96604;-83
2023/04/01 00:22:11;;;;;;;1.80;0.90;;;10.70;99.90;;;9.18;84.51;98709.56;10477892;27;96779;-83
2023/04/01 00:27:15;;;;;;;2.57;0.90;;;10.70;99.90;;;9.16;84.45;98707.06;10510928;27;96734;-84
2023/04/01 00:32:19;;;;;;;2.83;0.90;;;10.70;99.90;;;9.11;85.30;98699.69;10527088;27;97497;-83
2023/04/01 00:37:22;;;;;;;1.23;0.90;;;10.60;99.90;;;9.14;84.89;98705.66;10470693;27;96860;-83
2023/04/01 00:42:25;;;;;;;2.87;0.80;;;10.60;99.90;;;9.12;85.16;98700.56;10506925;27;96573;-83
2023/04/01 00:47:28;;;;;;;1.30;0.83;;;10.60;99.90;;;9.07;85.45;98687.88;10495640;27;96494;-84
2023/04/01 00:52:32;;;;;;;3.10;0.73;;;10.60;99.90;;;8.99;86.11;98690.66;10480210;27;98114;-83
2023/04/01 00:57:39;;;;;;;1.83;1.00;;;10.50;99.90;;;8.97;86.31;98681.28;10486325;27;97174;-82
2023/04/01 01:02:46;;;;;;;2.13;1.00;;;10.50;99.90;;;8.91;86.32;98687.34;10478913;27;98275;-82
2023/04/01 01:07:55;;;;;;;1.37;0.80;;;10.40;99.90;;;8.89;86.98;98678.78;10495596;27;97067;-82
2023/04/01 01:13:40;;;;;;;1.37;0.73;;;10.40;99.90;;;8.85;87.10;98687.13;10480160;27;96480;-82
2023/04/01 01:19:33;;;;;;;2.23;0.77;;;10.40;99.90;;;8.83;87.48;98680.38;10477523;27;98345;-82
2023/04/01 01:25:05;;;;;;;2.70;0.93;;;10.40;99.90;;;8.84;86.61;98680.19;10516025;27;96652;-82
2023/04/01 01:30:58;;;;;;;2.03;0.97;;;10.40;99.90;;;8.89;86.43;98676.16;10506773;27;96994;-81
2023/04/01 01:36:06;;;;;;;2.47;0.80;;;10.40;99.90;;;8.90;86.49;98675.94;10513491;27;96608;-82
2023/04/01 01:41:11;;;;;;;1.73;0.70;;;10.40;99.90;;;8.98;85.68;98667.03;10512904;27;96513;-82
2023/04/01 01:46:20;;;;;;;1.67;0.60;;;10.40;99.90;;;9.01;85.43;98671.94;10495565;27;96540;-81
2023/04/01 01:51:26;;;;;;;1.00;0.60;;;10.50;99.90;;;9.06;85.21;98680.13;10531013;27;97179;-81
2023/04/01 01:56:30;;;;;;;2.07;0.60;;;10.50;99.90;;;9.08;84.96;98670.97;10516794;27;97249;-80
2023/04/01 02:01:40;;;;;;;1.33;0.67;;;10.50;99.90;;;9.09;84.76;98669.13;10486876;27;96726;-80
2023/04/01 02:07:05;;;;;;;1.40;0.50;;;10.60;99.90;;;9.10;84.65;98673.41;10480360;27;96637;-82
2023/04/01 02:12:12;;;;;;;1.27;0.60;;;10.60;99.90;;;9.15;83.97;98673.66;10495170;27;96568;-83
2023/04/01 02:17:23;;;;;;;4.37;0.73;;;10.60;99.90;;;9.23;82.17;98662.88;10511251;27;96646;-84
2023/04/01 02:22:41;;;;;;;1.77;0.80;;;10.70;99.90;;;9.27;80.96;98650.88;10518157;27;96652;-83
2023/04/01 02:27:45;;;;;;;2.13;0.70;;;10.70;99.90;;;9.32;80.25;98648.44;10498353;27;97239;-83
2023/04/01 02:32:49;;;;;;;2.17;0.63;;;10.80;99.90;;;9.28;80.37;98656.97;10503773;27;97948;-83
2023/04/01 02:37:54;;;;;;;1.33;0.70;;;10.80;99.90;;;9.20;80.46;98647.38;10511877;27;98630;-83
2023/04/01 02:42:58;;;;;;;0.93;0.43;;;10.70;99.90;;;9.06;80.63;98643.84;10501261;27;97472;-83
2023/04/01 02:48:01;;;;;;;1.47;0.60;;;10.60;99.90;;;8.94;81.19;98645.41;10513598;27;96653;-83
2023/04/01 02:53:06;;;;;;;1.10;0.67;;;10.50;99.90;;;8.85;81.26;98636.78;10485747;27;96565;-83
2023/04/01 02:58:09;;;;;;;2.50;0.90;;;10.40;99.90;;;8.84;81.29;98644.94;10508794;27;96733;-82
2023/04/01 03:03:13;;;;;;;1.77;0.50;;;10.40;99.90;;;8.90;80.61;98656.59;10496739;27;97661;-82
2023/04/01 03:08:16;;;;;;;1.30;0.67;;;10.40;99.90;;;8.94;81.04;98653.34;10475375;27;96535;-82
2023/04/01 03:13:19;;;;;;;1.20;0.50;;;10.40;99.90;;;9.06;79.82;98657.09;10521376;27;97238;-82
2023/04/01 03:18:22;;;;;;;3.23;0.53;;;10.50;99.90;;;9.17;78.67;98645.09;10510677;27;98043;-82
2023/04/01 03:23:25;;;;;;;2.37;0.70;;;10.60;99.90;;;9.26;77.92;98645.78;10474538;27;97318;-82
2023/04/01 03:28:28;;;;;;;4.13;2.00;;;10.70;99.90;;;9.24;77.78;98648.63;10481049;27;96467;-81
2023/04/01 03:33:32;;;;;;;9.37;3.53;;;10.70;99.90;;;9.18;77.94;98651.25;10472249;27;98569;-81
2023/04/01 03:38:35;;;;;;;7.50;2.50;;;10.70;99.90;;;9.14;77.77;98658.75;10511438;27;97538;-80
2023/04/01 03:43:38;;;;;;;3.17;1.10;;;10.60;99.90;;;9.13;77.58;98675.69;10495978;27;96621;-79
2023/04/01 03:48:41;;;;;;;2.03;0.73;;;10.60;99.90;;;9.11;77.53;98688.28;10501937;27;96633;-79
2023/04/01 03:53:44;;;;;;;3.17;0.60;;;10.60;99.90;;;9.14;77.46;98693.22;10490234;27;96659;-80
2023/04/01 03:58:47;;;;;;;1.60;0.60;;;10.60;99.90;;;9.04;77.69;98679.47;10508710;27;96669;-80
2023/04/01 04:03:52;;;;;;;0.80;0.50;;;10.60;99.90;;;8.94;78.35;98684.34;10487565;27;97043;-79
2023/04/01 04:08:55;;;;;;;2.93;0.80;;;10.40;99.90;;;8.83;78.61;98702.41;10482743;27;98463;-79
2023/04/01 04:13:59;;;;;;;1.73;0.40;;;10.30;99.90;;;8.70;79.01;98696.19;10495455;27;97017;-80
2023/04/01 04:19:03;;;;;;;2.10;0.70;;;10.20;99.90;;;8.56;79.98;98701.34;10489610;27;98248;-79
2023/04/01 04:24:07;;;;;;;0.90;0.43;;;10.10;99.90;;;8.45;80.75;98701.06;10505079;27;97337;-79
2023/04/01 04:29:10;;;;;;;2.50;1.00;;;10.00;99.90;;;8.35;81.35;98695.25;10483988;27;97523;-79
2023/04/01 04:34:14;;;;;;;1.20;0.77;;;9.90;99.90;;;8.20;82.10;98698.78;10486518;27;97783;-78
2023/04/01 04:39:17;;;;;;;2.77;1.00;;;9.80;99.90;;;8.13;82.49;98691.78;10496185;27;97361;-78
2023/04/01 04:44:20;;;;;;;1.60;0.70;;;9.70;99.90;;;8.04;82.89;98677.88;10497418;27;96642;-78
2023/04/01 04:49:23;;;;;;;1.20;0.60;;;9.60;99.90;;;8.04;83.54;98688.44;10497661;27;96529;-78
2023/04/01 04:54:26;;;;;;;3.03;0.73;;;9.60;99.90;;;8.03;83.57;98686.78;10477221;27;96496;-79
2023/04/01 04:59:30;;;;;;;2.00;1.00;;;9.50;99.90;;;8.04;83.61;98685.81;10509923;27;96617;-78
2023/04/01 05:04:37;;;;;;;3.50;0.80;;;9.60;99.90;;;8.05;83.50;98676.84;10513442;27;96653;-79
2023/04/01 05:09:40;;;;;;;1.23;0.60;;;9.60;99.90;;;8.11;83.52;98686.69;10503868;27;97436;-78
2023/04/01 05:14:44;;;;;;;3.03;0.77;;;9.60;99.90;;;8.21;83.60;98694.28;10499143;27;97224;-79
2023/04/01 05:19:47;;;;;;;2.53;0.73;;;9.70;99.90;;;8.37;83.23;98690.59;10530560;27;96541;-79
2023/04/01 05:24:50;;;;;;;2.40;0.80;;;9.80;99.90;;;8.56;82.14;98695.25;10517317;27;96485;-81
2023/04/01 05:29:53;;;;;;;2.00;0.70;;;9.90;99.90;;;8.76;80.62;98683.00;10503448;27;97835;-80
2023/04/01 05:34:56;;;;;;;1.60;0.70;;;10.10;99.90;;;8.92;79.67;98687.16;10520453;27;96977;-82
2023/04/01 05:39:59;;;;;;;1.47;0.60;;;10.30;99.90;;;9.06;78.79;98696.03;10518256;27;96924;-82
2023/04/01 05:45:02;;;;;;;1.23;0.50;;;10.50;99.90;;;9.16;78.67;98700.97;10483859;27;98747;-82
2023/04/01 05:50:06;;;;;;;1.13;0.57;;;10.60;99.90;;;9.23;78.22;98701.81;10510175;27;97276;-81
2023/04/01 05:55:09;;;;;;;2.27;0.60;;;10.60;99.90;;;9.35;77.82;98695.75;10520256;27;96400;-82
2023/04/01 06:00:13;;;;;;;3.70;1.20;;;10.70;99.90;;;9.56;77.55;98701.97;10500897;27;97734;-83
2023/04/01 06:05:27;;;;;;;2.10;0.80;;;10.90;99.90;;;9.78;77.04;98695.56;10490115;27;96412;-83
2023/04/01 06:11:16;;;;;;;1.13;0.60;;;11.10;99.90;;;10.01;75.67;98687.22;10499156;27;96411;-83
2023/04/01 06:16:55;;;;;;;3.23;0.80;;;11.30;99.90;;;10.25;73.56;98685.03;10524500;27;97376;-82
2023/04/01 06:22:04;;;;;;;2.30;0.60;;;11.60;99.90;;;10.44;71.81;98687.75;10490246;27;96480;-82
2023/04/01 06:27:22;;;;;;;1.53;0.40;;;11.80;99.90;;;10.60;70.18;98685.69;10521304;27;96660;-82
2023/04/01 06:32:50;;;;;;;2.53;0.80;;;11.90;99.90;;;10.73;69.65;98696.28;10490153;27;96693;-83
2023/04/01 06:38:13;;;;;;;1.77;0.50;;;12.00;99.90;;;10.83;69.41;98688.72;10511248;27;97349;-83
2023/04/01 06:43:40;;;;;;;2.90;0.50;;;12.10;99.90;;;10.94;68.00;98700.59;10506893;27;96776;-83
2023/04/01 06:48:50;;;;;;;3.10;0.57;;;12.30;99.90;;;11.06;69.19;98698.94;10502692;27;96693;-83
2023/04/01 06:53:58;;;;;;;1.70;0.57;;;12.30;99.90;;;11.16;67.69;98698.50;10550023;27;96404;-83
2023/04/01 06:59:16;;;;;;;1.70;0.37;;;12.50;99.90;;;11.30;66.43;98700.09;10489129;27;96565;-83
2023/04/01 07:04:43;;;;;;;2.50;0.67;;;12.60;99.40;;;11.46;67.05;98694.34;10514449;27;96468;-83
2023/04/01 07:09:54;;;;;;;2.03;0.67;;;12.70;99.20;;;11.68;66.52;98692.19;10515360;27;96407;-83
2023/04/01 07:15:01;;;;;;;;;;;12.90;99.20;;;11.91;65.65;98689.03;10493192;27;97653;-83
2023/04/01 07:20:18;;;;;;;2.30;0.60;;;13.10;98.10;;;12.17;63.95;98687.25;10471671;27;96677;-84
2023/04/01 07:25:29;;;;;;;1.03;0.43;;;13.40;98.00;;;12.40;63.22;98682.16;10503206;27;97582;-87
2023/04/01 07:31:05;;;;;;;;;;;13.60;97.50;;;12.71;62.06;98691.13;10517134;27;97143;-87
2023/04/01 07:36:22;;;;;;;0.90;0.40;;;13.90;96.90;;;12.85;60.50;98682.81;10516214;27;96542;-84
2023/04/01 07:41:38;;;;;;;2.78;0.90;;;14.10;96.00;;;13.05;59.42;98687.13;10482838;27;98607;-82
2023/04/01 07:46:59;;;;;;;2.85;0.52;;;14.20;95.70;;;13.04;59.24;98694.31;10497805;27;98210;-84
2023/04/01 07:52:17;;;;;;;1.23;0.50;;;14.40;94.60;;;13.05;60.51;98697.81;10511951;27;97751;-84
2023/04/01 07:57:59;;;;;;;1.77;1.08;;;14.30;94.50;;;13.18;60.20;98697.66;10504376;27;97253;-84
2023/04/01 08:03:48;;;;;;;1.73;0.32;;;14.40;94.30;;;13.13;59.03;98695.69;10495075;27;97479;-83
2023/04/01 08:09:30;;;;;;;1.70;0.57;;;14.40;93.50;;;13.14;58.91;98704.50;10509283;27;98368;-84
2023/04/01 08:15:28;;;;;;;2.17;0.85;;;14.30;93.10;;;13.09;59.14;98710.50;10509352;27;98506;-84
2023/04/01 08:20:59;;;;;;;1.08;0.50;;;14.20;92.70;;;13.16;59.18;98697.09;10520112;27;96695;-84
2023/04/01 08:26:36;;;;;;;1.75;0.57;;;14.30;93.40;;;13.49;59.02;98707.41;10485091;27;98558;-84
2023/04/01 08:32:02;;;;;;;3.60;1.38;;;14.50;93.20;;;13.81;57.35;98710.75;10515778;27;97402;-84
2023/04/01 08:37:14;;;;;;;1.30;0.60;;;14.80;92.40;;;13.70;57.21;98705.34;10530255;27;96489;-84
2023/04/01 08:43:05;;;;;;;1.33;0.50;;;14.80;91.90;;;13.39;57.67;98715.94;10527908;27;96663;-84
2023/04/01 08:48:35;;;;;;;1.52;0.50;;;14.70;91.30;;;13.19;58.30;98703.81;10525180;27;98291;-83
2023/04/01 08:54:18;;;;;;;1.58;0.73;;;14.50;91.90;;;13.17;59.27;98713.91;10532688;27;96576;-83
2023/04/01 08:59:50;;;;;;;2.17;1.33;;;14.40;91.90;;;13.16;60.12;98722.94;10512617;27;97196;-83
2023/04/01 09:05:10;;;;;;;;;;;14.40;92.50;;;12.86;60.85;98716.44;10497286;27;97206;-83
2023/04/01 09:10:49;;;;;;;3.17;0.80;;;14.20;92.70;;;12.72;61.42;98706.13;10506480;27;96504;-83
2023/04/01 09:16:24;;;;;;;4.18;1.58;;;14.00;93.10;;;12.61;61.12;98723.63;10511595;27;97747;-82
2023/04/01 09:22:08;;;;;;;1.75;0.60;;;13.90;92.60;;;12.57;61.27;98709.09;10488807;27;98465;-83
2023/04/01 09:27:11;;;;;;;4.28;1.85;;;13.90;92.80;;;12.59;61.09;98710.53;10491004;27;96604;-82
2023/04/01 09:32:53;;;;;;;2.13;1.27;;;13.90;92.80;;;12.44;62.42;98711.84;10511211;27;96610;-82
2023/04/01 09:38:08;;;;;;;2.77;1.30;;;13.80;93.30;;;12.17;64.12;98713.88;10504936;27;97281;-82
2023/04/01 09:43:49;;;;;;;4.17;1.80;;;13.50;94.00;;;12.11;64.95;98710.22;10511177;27;96685;-82
2023/04/01 09:49:26;;;;;;;2.53;0.83;;;13.40;94.60;;;12.17;64.56;98704.03;10488182;27;96774;-82
2023/04/01 09:54:50;;;;;;;1.83;0.90;;;13.50;94.40;;;12.28;64.39;98703.34;10494365;27;97396;-82
2023/04/01 10:00:43;;;;;;;1.57;0.90;;;13.60;94.60;;;12.29;64.20;98715.66;10505981;27;96706;-85
2023/04/01 10:06:51;;;;;;;2.90;0.75;;;13.60;94.30;;;12.20;64.15;98710.78;10493917;27;96849;-82
2023/04/01 10:12:37;;;;;;;2.37;0.90;;;13.50;94.40;;;12.16;63.77;98710.38;10523674;27;98632;-82
2023/04/01 10:18:17;;;;;;;2.40;0.83;;;13.50;94.40;;;12.14;64.46;98719.63;10492909;27;97368;-81
2023/04/01 10:23:55;;;;;;;2.67;1.07;;;13.50;94.50;;;11.96;64.96;98717.69;10498120;27;98385;-82
2023/04/01 10:29:47;;;;;;;7.83;2.10;;;13.30;94.80;;;11.96;65.67;98720.34;10515658;27;97010;-82
2023/04/01 10:35:21;;;;;;;3.42;1.02;;;13.30;95.10;;;12.05;65.54;98719.91;10494109;27;96730;-82
2023/04/01 10:40:43;;;;;;;3.17;1.47;;;13.40;95.20;;;12.24;66.09;98723.47;10505626;27;96648;-82
2023/04/01 10:46:54;;;;;;;5.13;1.30;;;13.50;95.40;;;12.38;65.37;98724.19;10521295;27;96632;-82
2023/04/01 10:52:24;;;;;;;4.63;1.48;;;13.70;95.10;;;12.63;63.96;98716.22;10399521;27;97838;-82
2023/04/01 10:58:02;;;;;;;3.28;1.10;;;13.90;94.40;;;13.19;64.57;98711.81;10514473;27;98210;-82
2023/04/01 11:03:37;;;;;;;4.38;1.20;;;14.40;95.20;;;14.05;61.07;98695.63;10503714;27;96505;-83
2023/04/01 11:08:54;;;;;;;2.80;0.73;;;15.20;93.90;;;14.52;58.11;98693.13;10511832;27;98035;-83
2023/04/01 11:14:39;;;;;;;2.75;0.80;;;15.70;93.10;;;14.17;54.73;98691.16;10500303;27;97228;-83
2023/04/01 11:20:11;;;;;;;2.15;0.80;;;15.50;90.20;;;13.51;56.88;98713.34;10474970;27;96586;-82
2023/04/01 11:25:49;;;;;;;2.42;1.00;;;14.90;90.20;;;12.95;60.25;98724.16;10478806;27;97267;-82
2023/04/01 11:31:34;;;;;;;2.10;0.63;;;14.40;91.80;;;12.48;61.97;98719.22;10458267;27;98452;-82
2023/04/01 11:37:02;;;;;;;1.97;0.80;;;13.90;92.60;;;12.19;63.04;98725.94;10456070;27;97832;-81
2023/04/01 11:42:27;;;;;;;4.67;1.10;;;13.60;93.10;;;11.98;64.84;98729.75;10460418;27;98421;-80
2023/04/01 11:48:11;;;;;;;3.57;0.83;;;13.40;93.90;;;12.01;65.21;98723.19;10425180;27;97342;-79
2023/04/01 11:54:08;;;;;;;1.30;0.60;;;13.30;94.30;;;12.16;64.52;98722.88;10468876;27;96642;-80
2023/04/01 11:59:29;;;;;;;8.23;1.33;;;13.50;94.40;;;12.54;64.51;98725.53;10468273;27;96386;-79
2023/04/01 12:05:06;;;;;;;2.50;0.90;;;13.80;94.40;;;13.13;60.81;98719.69;10429916;27;96778;-81
2023/04/01 12:10:50;;;;;;;3.13;0.80;;;14.40;93.10;;;13.62;58.20;98723.28;10464793;27;96933;-79
2023/04/01 12:16:14;;;;;;;2.75;0.65;;;15.00;90.80;;;13.66;57.25;98721.78;10473436;27;97156;-79
2023/04/01 12:21:43;;;;;;;3.22;1.23;;;15.00;90.20;;;13.56;58.03;98726.84;10471930;27;97374;-81
2023/04/01 12:27:16;;;;;;;4.00;1.10;;;14.90;90.60;;;13.74;58.72;98709.19;10494607;27;96702;-80
2023/04/01 12:32:55;;;;;;;2.60;0.68;;;15.00;91.00;;;14.13;55.95;98705.19;10520429;27;96530;-80
2023/04/01 12:38:13;;;;;;;3.03;0.90;;;15.50;89.00;;;14.63;54.18;98711.03;10537112;27;96458;-80
2023/04/01 12:43:54;;;;;;;1.35;0.60;;;16.10;87.40;;;14.97;52.82;98712.09;10506399;27;96677;-80
2023/04/01 12:49:34;;;;;;;3.33;0.80;;;16.50;85.40;;;14.99;51.76;98709.19;10508840;27;96738;-81
2023/04/01 12:55:12;;;;;;;1.75;0.90;;;16.60;81.60;;;15.32;49.96;98707.78;10480752;27;96651;-81
2023/04/01 13:01:02;;;;;;;4.05;0.80;;;16.90;80.10;;;15.82;48.85;98691.16;10489495;27;96759;-81
2023/04/01 13:06:55;;;;;;;2.08;0.63;;;17.50;77.00;;;16.13;49.06;98684.50;10522884;27;96705;-82
2023/04/01 13:12:40;;;;;;;2.15;0.55;;;17.90;76.20;;;16.39;46.67;98672.38;10515196;27;96553;-82
2023/04/01 13:18:10;;;;;;;3.67;2.20;;;18.20;72.10;;;16.84;46.04;98683.03;10505639;27;96509;-81
2023/04/01 13:23:36;;;;;;;3.92;3.13;;;18.50;72.00;;;17.09;45.94;98674.53;10514270;27;98125;-82
2023/04/01 13:29:09;;;;;;;3.15;0.93;;;18.70;72.10;;;16.87;44.96;98673.72;10505659;27;98633;-82
2023/04/01 13:34:36;;;;;;;2.45;0.70;;;18.80;68.90;;;16.56;45.26;98678.56;10505148;27;96515;-82
2023/04/01 13:40:07;;;;;;;1.60;0.80;;;18.50;67.60;;;16.29;46.50;98684.53;10503470;27;96658;-81
2023/04/01 13:45:19;;;;;;;;;;;18.20;68.20;;;16.01;46.40;98685.41;10508429;27;97934;-82
2023/04/01 13:50:53;;;;;;;2.20;0.68;;;17.70;68.70;;;15.94;46.76;98686.56;10505828;27;96586;-82
2023/04/01 13:56:02;;;;;;;4.30;0.57;;;17.60;69.20;;;15.75;47.15;98696.66;10503740;27;98531;-81
2023/04/01 14:01:13;;;;;;;2.70;0.52;;;17.40;70.00;;;15.42;47.53;98698.13;10495720;27;96900;-82
2023/04/01 14:06:31;;;;;;;2.15;0.70;;;17.00;70.20;;;15.16;48.75;98695.94;10544704;27;96447;-81
2023/04/01 14:11:56;;;;;;;2.20;0.80;;;16.70;71.40;;;15.37;50.18;98697.19;10515053;27;96912;-82
2023/04/01 14:17:46;;;;;;;3.88;1.27;;;16.90;73.90;;;15.09;51.19;98698.72;10509532;27;98154;-81
2023/04/01 14:23:08;;;;;;;10.63;4.45;;;16.90;73.40;;;15.21;51.34;98688.81;10453202;27;96613;-81
2023/04/01 14:28:31;;;;;;;8.80;3.30;;;16.90;74.60;;;15.46;51.81;98690.41;10510751;27;96564;-81
2023/04/01 14:34:15;;;;;;;5.07;2.33;;;17.30;74.60;;;15.72;50.27;98679.22;10521385;27;96771;-82
2023/04/01 14:39:43;;;;;;;2.33;1.20;;;17.70;72.80;;;16.13;48.94;98674.59;10494330;27;96603;-82
2023/04/01 14:45:04;;;;;;;2.60;1.10;;;18.10;71.00;;;16.29;46.81;98679.19;10499074;27;97065;-81
2023/04/01 14:50:23;;;;;;;1.35;0.80;;;18.30;68.40;;;15.90;48.07;98682.78;10544682;27;96644;-82
2023/04/01 14:55:38;;;;;;;1.65;0.70;;;17.80;69.30;;;15.96;49.08;98679.94;10497980;27;97098;-83
2023/04/01 15:00:48;;;;;;;2.22;1.10;;;17.70;70.70;;;16.40;47.32;98676.69;10512204;27;96552;-82
2023/04/01 15:06:37;;;;;;;2.47;0.98;;;18.30;69.70;;;16.78;46.20;98689.38;10519028;27;96554;-78
2023/04/01 15:12:36;;;;;;;1.20;0.60;;;18.70;67.80;;;16.99;45.51;98688.66;10510609;27;96685;-78
2023/04/01 15:18:06;;;;;;;4.50;1.83;;;19.00;65.90;;;16.80;44.47;98688.09;10376085;27;96613;-78
2023/04/01 15:23:26;;;;;;;1.97;1.10;;;18.90;64.50;;;16.66;44.92;98689.44;10509178;27;97578;-79
2023/04/01 15:28:52;;;;;;;1.40;0.80;;;18.50;65.30;;;16.24;45.23;98684.44;10497463;27;96671;-79
2023/04/01 15:34:20;;;;;;;2.08;0.70;;;18.00;65.20;;;16.09;45.33;98686.88;10514069;27;96786;-79
2023/04/01 15:39:51;;;;;;;2.85;0.65;;;17.70;66.00;;;16.37;45.77;98682.50;10521685;27;97202;-79
2023/04/01 15:45:06;;;;;;;3.45;0.90;;;17.90;67.10;;;16.94;44.86;98685.06;10498694;27;98389;-79
2023/04/01 15:50:25;;;;;;;1.00;0.60;;;18.50;66.50;;;17.29;43.38;98699.00;10518858;27;97643;-83
2023/04/01 15:56:10;;;;;;;1.42;0.68;;;18.90;65.10;;;17.38;42.14;98702.88;10520564;27;98136;-84
2023/04/01 16:01:35;;;;;;;5.10;2.10;;;19.00;64.30;;;17.06;42.26;98707.25;10504636;27;97161;-80
2023/04/01 16:06:50;;;;;;;5.47;2.58;;;18.70;62.10;;;16.54;44.55;98715.53;10499846;27;97496;-79
2023/04/01 16:12:11;;;;;;;8.75;3.15;;;18.10;64.20;;;16.02;46.15;98723.72;10497506;27;98306;-80
2023/04/01 16:18:04;;;;;;;4.82;1.98;;;17.50;66.10;;;15.53;47.86;98742.81;10495246;27;96681;-80
2023/04/01 16:23:37;;;;;;;47.65;16.50;;;17.00;69.20;;;15.24;48.91;98746.44;10431778;27;98344;-79
2023/04/01 16:29:05;;;;;;;7.07;2.50;;;16.60;69.50;;;15.03;49.80;98749.69;10449590;27;98395;-80
2023/04/01 16:34:34;;;;;;;14.48;4.68;;;16.30;70.00;;;14.94;49.83;98752.69;10479639;27;98023;-80
2023/04/01 16:39:50;;;;;;;3.08;1.17;;;16.20;70.50;;;14.74;49.55;98754.88;10446951;27;96690;-79
2023/04/01 16:45:15;;;;;;;2.30;0.98;;;16.00;70.20;;;14.54;49.77;98759.72;10462396;27;96486;-80
2023/04/01 16:50:49;;;;;;;7.25;2.65;;;15.90;70.30;;;14.31;50.49;98761.22;10489955;27;98146;-80
2023/04/01 16:56:02;;;;;;;4.20;1.80;;;15.70;71.10;;;14.06;49.84;98768.56;10466183;27;98519;-79
2023/04/01 17:01:50;;;;;;;2.53;1.00;;;15.50;70.80;;;13.80;50.89;98772.38;10486007;27;97812;-79
2023/04/01 17:07:11;;;;;;;3.65;1.50;;;15.20;71.60;;;13.60;51.67;98785.94;10484527;27;97315;-79
2023/04/01 17:12:39;;;;;;;;;;;15.00;71.60;;;13.36;52.10;98792.94;10457376;27;98154;-80
2023/04/01 17:18:21;;;;;;;2.22;1.00;;;14.80;72.90;;;13.11;53.11;98796.41;10463329;27;96638;-80
2023/04/01 17:23:34;;;;;;;;;;;14.60;73.40;;;12.88;54.03;98798.84;10464482;27;96718;-79
2023/04/01 17:28:50;;;;;;;3.47;1.70;;;14.40;74.80;;;12.67;54.48;98812.56;10479808;27;96697;-81
2023/04/01 17:34:38;;;;;;;3.67;1.60;;;14.10;74.30;;;12.45;54.81;98809.41;10473305;27;97997;-80
2023/04/01 17:40:33;;;;;;;7.03;2.60;;;13.90;74.50;;;12.17;55.53;98821.19;10472972;27;96770;-79
2023/04/01 17:46:01;;;;;;;5.80;3.20;;;13.70;74.80;;;11.92;56.31;98814.97;10495461;27;96909;-85
2023/04/01 17:51:07;;;;;;;13.23;6.63;;;13.50;75.60;;;11.74;57.05;98823.56;10464536;27;96562;-83
2023/04/01 17:56:19;;;;;;;13.57;7.00;;;13.30;75.50;;;11.56;57.25;98832.22;10485404;27;96957;-83
2023/04/01 18:01:34;;;;;;;8.07;5.00;;;13.10;76.10;;;11.38;58.27;98840.00;10481228;27;96622;-81
2023/04/01 18:07:08;;;;;;;4.87;2.93;;;13.00;76.70;;;11.17;59.48;98844.53;10475803;27;96533;-81
2023/04/01 18:12:29;;;;;;;3.53;1.70;;;12.80;78.20;;;11.01;59.79;98857.41;10465041;27;96546;-81
2023/04/01 18:17:51;;;;;;;2.22;1.08;;;12.60;78.20;;;10.84;60.34;98857.78;10504050;27;97238;-84
2023/04/01 18:23:12;;;;;;;2.33;1.13;;;12.50;78.70;;;10.72;61.22;98856.75;10468372;27;96820;-85
2023/04/01 18:28:30;;;;;;;1.95;0.90;;;12.30;79.50;;;10.65;61.61;98869.19;10490086;27;96665;-85
2023/04/01 18:34:10;;;;;;;2.17;0.83;;;12.20;80.40;;;10.62;61.99;98870.44;10476101;27;97431;-84
2023/04/01 18:39:35;;;;;;;2.07;0.90;;;12.20;80.60;;;10.65;62.48;98882.47;10484341;27;98958;-84
2023/04/01 18:45:41;;;;;;;5.00;2.20;;;12.20;81.50;;;10.68;62.12;98877.59;10454969;27;98835;-85
2023/04/01 18:51:11;;;;;;;1.83;0.80;;;12.20;81.80;;;10.71;62.14;98884.34;10452968;27;98463;-83
2023/04/01 18:56:30;;;;;;;2.90;1.23;;;12.20;81.60;;;10.78;61.63;98887.81;10479786;27;98065;-85
2023/04/01 19:01:48;;;;;;;;;;;12.20;81.70;;;10.76;61.78;98889.06;10473373;27;97343;-87
2023/04/01 19:06:57;;;;;;;3.47;1.50;;;12.30;82.20;;;10.64;61.54;98891.47;10473522;27;96654;-86
2023/04/01 19:12:43;;;;;;;3.27;1.70;;;12.20;81.70;;;10.49;62.74;98896.09;10449278;27;96602;-86
2023/04/01 19:18:33;;;;;;;2.30;1.03;;;12.10;82.20;;;10.36;63.28;98892.38;10450479;27;96945;-86
2023/04/01 19:24:04;;;;;;;3.33;1.60;;;11.90;82.90;;;10.28;63.79;98892.56;10473424;27;96815;-86
2023/04/01 19:29:46;;;;;;;3.43;1.73;;;11.80;83.40;;;10.21;63.91;98904.16;10468719;27;96688;-86
2023/04/01 19:35:17;;;;;;;4.47;1.70;;;11.70;83.90;;;10.16;64.10;98902.06;10455744;27;97467;-85
2023/04/01 19:40:38;;;;;;;2.30;1.30;;;11.70;84.20;;;10.05;64.27;98914.06;10474663;27;96608;-86
2023/04/01 19:46:20;;;;;;;8.13;3.23;;;11.60;84.40;;;9.95;64.50;98920.72;10464552;27;98047;-86
2023/04/01 19:51:41;;;;;;;;;;;11.50;84.60;;;9.80;65.11;98923.50;10469629;27;98422;-86
2023/04/01 19:56:55;;;;;;;3.80;1.10;;;11.40;85.70;;;9.61;65.63;98928.47;10473003;27;96617;-85
2023/04/01 20:02:07;;;;;;;1.93;1.10;;;11.30;85.20;;;9.46;66.59;98916.31;10451758;27;96864;-86
2023/04/01 20:07:21;;;;;;;3.57;0.90;;;11.10;85.80;;;9.28;67.04;98928.19;10492262;27;96443;-84
2023/04/01 20:13:02;;;;;;;1.67;0.80;;;11.00;86.40;;;9.17;67.55;98922.56;10479123;27;98562;-85
2023/04/01 20:18:33;;;;;;;1.37;0.77;;;10.80;86.90;;;9.06;67.83;98921.28;10476273;27;97344;-85
2023/04/01 20:23:59;;;;;;;1.47;0.47;;;10.70;87.30;;;8.94;68.32;98920.13;10462556;27;96747;-85
2023/04/01 20:29:21;;;;;;;2.97;1.00;;;10.60;87.70;;;8.85;68.36;98914.13;10448893;27;96428;-85
2023/04/01 20:34:46;;;;;;;2.67;1.27;;;10.50;88.00;;;8.75;68.97;98919.69;10476954;27;96479;-85
2023/04/01 20:40:17;;;;;;;2.10;1.00;;;10.40;88.70;;;8.62;69.34;98922.22;10464427;27;96513;-85
2023/04/01 20:46:06;;;;;;;2.30;1.10;;;10.30;89.00;;;8.55;69.84;98931.91;10448521;27;96885;-85
2023/04/01 20:51:22;;;;;;;1.90;0.80;;;10.20;89.60;;;8.48;70.25;98942.41;10464413;27;97482;-85
2023/04/01 20:57:06;;;;;;;2.20;0.80;;;10.20;90.00;;;8.48;71.04;98947.72;10454160;27;96918;-85
2023/04/01 21:03:05;;;;;;;2.30;1.07;;;10.10;90.40;;;8.50;72.16;98966.06;10453075;27;96730;-86
2023/04/01 21:08:33;;;;;;;1.77;0.90;;;10.10;90.70;;;8.67;73.34;98962.19;10466072;27;96529;-85
2023/04/01 21:14:07;;;;;;;3.30;1.20;;;10.20;92.00;;;8.84;73.24;98965.47;10479596;27;98068;-85
2023/04/01 21:19:31;;;;;;;2.33;0.90;;;10.30;92.00;;;8.87;72.95;98946.53;10476988;27;96631;-86
2023/04/01 21:25:13;;;;;;;3.63;1.07;;;10.40;92.00;;;8.85;72.99;98962.63;10483004;27;98237;-85
2023/04/01 21:31:12;;;;;;;3.70;1.40;;;10.40;92.10;;;8.83;73.37;98972.59;10477995;27;98916;-82
2023/04/01 21:36:33;;;;;;;3.07;1.27;;;10.40;92.30;;;8.92;74.30;98959.22;10491460;27;97358;-81
2023/04/01 21:42:43;;;;;;;4.40;1.83;;;10.40;93.10;;;9.13;73.81;98963.72;10466515;27;97053;-81
2023/04/01 21:48:13;;;;;;;2.83;1.47;;;10.50;94.20;;;9.31;72.53;98964.13;10469728;27;96750;-81
2023/04/01 21:53:27;;;;;;;3.30;1.53;;;10.70;94.20;;;9.47;70.93;98957.72;10469233;27;96622;-81
2023/04/01 21:59:01;;;;;;;2.90;1.23;;;10.80;93.80;;;9.52;69.88;98955.31;10507965;27;96506;-82
2023/04/01 22:04:38;;;;;;;2.80;1.43;;;10.90;93.40;;;9.52;69.87;98960.63;10457040;27;96898;-81
2023/04/01 22:09:58;;;;;;;2.40;1.07;;;10.90;93.30;;;9.49;69.51;98966.31;10458957;27;96624;-81
2023/04/01 22:15:32;;;;;;;2.27;1.20;;;10.90;93.20;;;9.42;69.36;98976.06;10472034;27;96598;-81
2023/04/01 22:21:21;;;;;;;2.00;0.93;;;10.90;93.30;;;9.30;69.87;98984.50;10471468;27;96520;-81
2023/04/01 22:26:57;;;;;;;1.80;1.10;;;10.80;93.40;;;9.23;70.46;98986.25;10448817;27;96429;-81
2023/04/01 22:32:10;;;;;;;1.50;1.10;;;10.70;93.60;;;9.24;70.36;98976.50;10441551;27;97637;-81
2023/04/01 22:38:15;;;;;;;1.97;1.00;;;10.70;93.80;;;9.21;70.72;99000.72;10466163;27;98146;-80